Terminal Aerodrome Forecast
Issued by NWS

Home | Current Version | Previous Version | Graphics & Text | Print | Product List | Glossary On
Versions: 1 2 3 4 5 6 7 8 9 10 11 12 13 14 15 16 17 18 19 20 21 22 23 24 25 26 27 28 29 30 31 32 33 34 35
000
FTUS43 KGRB 272321
TAFRHI
TAF
KRHI 272321Z 2800/2824 26008KT P6SM SCT035 BKN070
      TEMPO 2800/2801 4SM TSRA BR BKN025CB
     FM280500 VRB03KT 4SM BR FEW080
      TEMPO 2807/2811 1/2SM FG VV002
     FM281500 18008KT P6SM BKN060
     FM281800 19012G20KT P6SM VCSH BKN060=

USA.gov is the U.S. government's official web portal to all federal, state and local government web resources and services.